Time;durP1;ratioP1;P1;durP2;ratioP2;P2;SDS_P1;SDS_P2;PMS_P1;PMS_P2;Temp;Humidity;BMP_temperature;BMP_pressure;BME280_temperature;BME280_humidity;BME280_pressure;Samples;Min_cycle;Max_cycle;Signal;HPM_P1;HPM_P2
2021/06/09 00:03:23;;;;;;;32.67;21.08;;;;;;;17.80;70.28;101043.25;8680264;33;20272;-74
2021/06/09 00:08:26;;;;;;;34.08;21.60;;;;;;;17.73;69.68;101044.91;8679517;33;20232;-74
2021/06/09 00:13:31;;;;;;;29.92;20.80;;;;;;;17.77;69.63;101032.69;8679830;33;20768;-74
2021/06/09 00:18:36;;;;;;;32.90;20.50;;;;;;;17.76;69.43;101044.59;8679462;33;20311;-74
2021/06/09 00:23:39;;;;;;;24.05;17.23;;;;;;;17.76;68.47;101040.00;8679750;33;20236;-74
2021/06/09 00:28:42;;;;;;;22.45;16.38;;;;;;;17.79;68.35;101042.41;8679147;33;20232;-75
2021/06/09 00:33:46;;;;;;;26.27;17.45;;;;;;;17.80;68.58;101037.81;8679439;33;20370;-74
2021/06/09 00:38:48;;;;;;;26.20;17.77;;;;;;;17.77;69.14;101044.44;8678958;33;20239;-75
2021/06/09 00:43:52;;;;;;;27.02;18.85;;;;;;;17.78;69.45;101042.59;8678979;33;20233;-74
2021/06/09 00:48:56;;;;;;;25.92;16.98;;;;;;;17.76;68.72;101037.28;8678775;33;20237;-74
2021/06/09 00:54:03;;;;;;;23.85;17.00;;;;;;;17.79;68.54;101047.00;8681933;33;20228;-75
2021/06/09 00:59:07;;;;;;;24.92;16.95;;;;;;;17.77;68.91;101036.28;8683794;33;20295;-74
2021/06/09 01:04:11;;;;;;;23.02;15.25;;;;;;;17.74;68.52;101031.16;8678322;33;20235;-74
2021/06/09 01:09:14;;;;;;;24.40;15.65;;;;;;;17.73;68.31;101031.31;8678501;33;20248;-75
2021/06/09 01:14:17;;;;;;;23.25;14.70;;;;;;;17.63;68.61;101021.38;8679976;33;20239;-75
2021/06/09 01:19:22;;;;;;;23.20;15.23;;;;;;;17.63;68.74;101024.09;8679893;33;20240;-74
2021/06/09 01:24:26;;;;;;;22.98;14.88;;;;;;;17.61;68.74;101033.44;8679493;33;20240;-74
2021/06/09 01:29:29;;;;;;;22.55;15.70;;;;;;;17.56;68.82;101022.16;8679132;33;20285;-73
2021/06/09 01:34:31;;;;;;;22.75;15.45;;;;;;;17.54;68.88;101016.88;8678557;33;20342;-75
2021/06/09 01:39:36;;;;;;;19.60;13.45;;;;;;;17.43;68.95;101015.22;8679068;33;20217;-75
2021/06/09 01:44:38;;;;;;;19.65;13.23;;;;;;;17.32;69.24;101012.75;8678988;33;20259;-74
2021/06/09 01:49:41;;;;;;;20.08;12.50;;;;;;;16.95;69.41;101019.09;8681360;33;20239;-74
2021/06/09 01:54:46;;;;;;;20.23;13.32;;;;;;;16.64;70.33;101015.78;8683324;33;20239;-74
2021/06/09 01:59:48;;;;;;;21.20;13.52;;;;;;;16.51;70.97;101017.97;8684176;33;20231;-74
2021/06/09 02:04:51;;;;;;;18.10;13.60;;;;;;;16.51;71.13;101007.13;8683829;33;20677;-74
2021/06/09 02:09:55;;;;;;;20.55;13.77;;;;;;;16.46;71.37;101013.00;8683475;33;20232;-74
2021/06/09 02:14:58;;;;;;;21.30;14.27;;;;;;;16.46;70.94;101013.00;8683789;33;20220;-75
2021/06/09 02:20:00;;;;;;;22.13;15.07;;;;;;;16.33;71.59;101012.47;8682434;33;22174;-74
2021/06/09 02:25:07;;;;;;;24.23;15.90;;;;;;;16.33;71.42;101002.47;8683551;33;20225;-75
2021/06/09 02:30:11;;;;;;;22.15;14.32;;;;;;;16.28;71.56;100995.78;8683274;33;20737;-74
2021/06/09 02:35:18;;;;;;;24.48;16.35;;;;;;;16.22;71.87;101007.19;8682937;33;20239;-74
2021/06/09 02:40:23;;;;;;;24.35;15.50;;;;;;;16.18;72.01;101001.22;8683314;33;20228;-75
2021/06/09 02:45:25;;;;;;;23.92;15.57;;;;;;;16.08;72.28;101001.22;8682649;33;20938;-74
2021/06/09 02:50:28;;;;;;;26.40;16.88;;;;;;;16.00;72.75;101003.78;8683242;33;20236;-74
2021/06/09 02:55:46;;;;;;;27.38;16.83;;;;;;;15.85;72.85;101003.41;8682592;33;20263;-74
2021/06/09 03:01:00;;;;;;;27.55;16.42;;;;;;;15.81;73.31;101010.09;8682502;33;20637;-74
2021/06/09 03:06:08;;;;;;;25.70;16.90;;;;;;;15.79;73.59;101016.66;8681062;33;20875;-73
2021/06/09 03:11:23;;;;;;;27.80;16.17;;;;;;;15.67;73.82;101007.81;8682935;33;20327;-74
2021/06/09 03:16:31;;;;;;;27.27;16.88;;;;;;;15.72;73.90;101005.53;8682413;33;20224;-74
2021/06/09 03:21:40;;;;;;;27.95;18.42;;;;;;;15.78;73.97;101004.97;8682377;33;20225;-74
2021/06/09 03:26:52;;;;;;;28.77;17.80;;;;;;;15.82;73.67;101005.53;8681562;33;20231;-74
2021/06/09 03:31:59;;;;;;;26.63;17.08;;;;;;;15.68;73.94;101004.94;8682308;33;20237;-74
2021/06/09 03:37:03;;;;;;;27.00;17.42;;;;;;;15.75;74.46;101001.69;8681777;33;20260;-74
2021/06/09 03:42:11;;;;;;;25.20;16.98;;;;;;;15.89;73.70;101004.81;8682002;33;20377;-74
2021/06/09 03:47:14;;;;;;;24.83;15.63;;;;;;;15.92;73.51;100998.25;8681735;33;20223;-74
2021/06/09 03:52:18;;;;;;;24.65;16.70;;;;;;;15.97;73.20;100998.66;8682265;33;20236;-74
2021/06/09 03:57:24;;;;;;;29.27;16.58;;;;;;;15.92;72.94;100996.38;8681376;33;20714;-74
2021/06/09 04:02:29;;;;;;;28.40;16.48;;;;;;;16.05;73.07;101000.66;8681304;33;20650;-74
2021/06/09 04:07:32;;;;;;;29.27;16.83;;;;;;;16.13;72.66;101004.34;8680981;33;20232;-74
2021/06/09 04:12:37;;;;;;;29.55;17.02;;;;;;;16.20;72.72;101001.06;8681803;33;20233;-74
2021/06/09 04:17:43;;;;;;;25.80;17.05;;;;;;;16.40;72.31;101005.47;8679445;33;20232;-74
2021/06/09 04:22:46;;;;;;;25.45;17.35;;;;;;;16.58;71.96;101008.25;8680989;33;20235;-74
2021/06/09 04:27:51;;;;;;;28.90;18.92;;;;;;;16.74;71.18;101004.91;8681292;33;20221;-73
2021/06/09 04:32:58;;;;;;;27.50;18.67;;;;;;;16.79;70.78;101000.75;8680952;33;20740;-74
2021/06/09 04:38:00;;;;;;;29.77;18.85;;;;;;;16.78;71.20;101003.59;8681218;33;20216;-74
2021/06/09 04:43:05;;;;;;;31.20;19.30;;;;;;;16.83;70.98;100997.72;8681364;33;20306;-74
2021/06/09 04:48:11;;;;;;;23.63;16.00;;;;;;;16.61;71.64;100997.09;8680773;33;20259;-73
2021/06/09 04:53:14;;;;;;;23.73;15.05;;;;;;;16.61;72.07;100991.66;8680932;33;20277;-74
2021/06/09 04:58:21;;;;;;;25.70;17.52;;;;;;;16.79;71.52;100992.59;8680498;33;20251;-75
2021/06/09 05:03:23;;;;;;;26.15;16.88;;;;;;;17.08;71.60;100993.44;8680509;33;20264;-74
2021/06/09 05:08:26;;;;;;;26.17;16.90;;;;;;;17.38;70.42;100998.53;8680614;33;20228;-74
2021/06/09 05:13:34;;;;;;;26.80;17.15;;;;;;;17.63;69.98;100996.91;8683503;33;20221;-74
2021/06/09 05:18:42;;;;;;;15.60;10.65;;;;;;;17.91;68.93;100986.81;8680091;33;20235;-74
2021/06/09 05:23:49;;;;;;;19.75;13.38;;;;;;;18.32;67.77;100997.13;8727038;33;20231;-73
2021/06/09 05:28:58;;;;;;;21.40;15.48;;;;;;;18.62;66.91;100982.19;8736737;33;20881;-74
2021/06/09 05:34:02;;;;;;;20.58;13.95;;;;;;;18.42;66.56;100988.88;8737822;33;20231;-74
2021/06/09 05:39:05;;;;;;;20.25;14.70;;;;;;;18.46;66.47;100990.28;8737896;33;20232;-73
2021/06/09 05:44:14;;;;;;;18.23;12.88;;;;;;;18.34;67.65;100990.53;8739207;33;20239;-74
2021/06/09 05:49:22;;;;;;;19.77;13.23;;;;;;;18.63;66.36;100991.22;8751931;33;20231;-74
2021/06/09 05:54:25;;;;;;;30.70;19.20;;;;;;;18.72;66.03;100992.94;8744332;33;20288;-74
2021/06/09 05:59:29;;;;;;;20.48;13.68;;;;;;;18.52;67.18;100995.06;8739351;33;20211;-73
2021/06/09 06:04:34;;;;;;;24.42;16.83;;;;;;;18.64;67.27;100995.63;8738467;33;20232;-73
2021/06/09 06:09:38;;;;;;;26.48;18.75;;;;;;;18.66;66.69;100991.72;8738757;33;20224;-74
2021/06/09 06:14:44;;;;;;;22.45;15.48;;;;;;;18.64;67.28;100988.31;8736427;33;20227;-74
2021/06/09 06:19:50;;;;;;;23.42;15.35;;;;;;;18.58;66.97;100994.41;8738242;33;20263;-75
2021/06/09 06:24:53;;;;;;;29.05;18.80;;;;;;;18.51;64.52;100994.22;8736487;33;20236;-74
2021/06/09 06:29:57;;;;;;;30.73;19.50;;;;;;;18.82;65.47;100992.88;8663307;33;21538;-74
2021/06/09 06:35:01;;;;;;;26.52;18.65;;;;;;;19.33;64.91;100989.09;8674005;33;20236;-74
2021/06/09 06:40:06;;;;;;;26.35;17.88;;;;;;;19.28;64.79;100998.78;8680792;33;21524;-74
2021/06/09 06:45:11;;;;;;;29.63;20.05;;;;;;;19.02;65.41;101002.47;8728839;33;20235;-74
2021/06/09 06:50:16;;;;;;;27.73;18.42;;;;;;;19.61;64.57;101006.03;8740856;33;20223;-74
2021/06/09 06:55:22;;;;;;;30.80;20.30;;;;;;;19.84;62.80;100999.91;8737388;33;20224;-74
2021/06/09 07:00:26;;;;;;;33.88;21.45;;;;;;;19.87;62.89;101005.03;8738627;33;20216;-74
2021/06/09 07:05:33;;;;;;;35.88;22.35;;;;;;;20.45;61.86;101005.84;8739491;33;20683;-74
2021/06/09 07:10:35;;;;;;;33.00;20.60;;;;;;;20.64;60.80;101010.06;8741279;33;20243;-74
2021/06/09 07:15:40;;;;;;;33.00;21.17;;;;;;;20.61;61.02;101005.78;8738909;33;20329;-74
2021/06/09 07:20:44;;;;;;;31.73;20.85;;;;;;;20.70;60.30;100996.53;8739318;33;20223;-74
2021/06/09 07:25:47;;;;;;;32.95;20.38;;;;;;;20.74;60.77;101003.38;8739434;33;21397;-73
2021/06/09 07:30:53;;;;;;;35.35;22.23;;;;;;;20.89;59.90;101008.94;8740055;33;20255;-73
2021/06/09 07:35:57;;;;;;;33.72;20.58;;;;;;;21.42;58.64;101004.59;8738515;33;20227;-74
2021/06/09 07:41:03;;;;;;;34.28;21.60;;;;;;;21.37;58.60;101003.44;8738091;33;20255;-76
2021/06/09 07:46:11;;;;;;;29.85;19.77;;;;;;;21.89;58.23;101003.59;8738118;33;20227;-75
2021/06/09 07:51:15;;;;;;;30.98;21.15;;;;;;;22.24;54.78;101001.22;8738194;33;20716;-75
2021/06/09 07:56:18;;;;;;;30.98;20.15;;;;;;;22.30;55.29;101014.16;8737865;33;20255;-74
2021/06/09 08:01:22;;;;;;;29.05;19.55;;;;;;;22.18;56.39;101009.31;8738262;33;20806;-75
2021/06/09 08:06:25;;;;;;;28.65;20.15;;;;;;;22.61;55.71;101004.94;8737958;33;20375;-75
2021/06/09 08:11:29;;;;;;;29.98;18.48;;;;;;;23.45;53.22;101007.31;8713520;33;20755;-75
2021/06/09 08:16:35;;;;;;;24.30;16.02;;;;;;;23.69;52.15;101002.47;8679947;33;20635;-75
2021/06/09 08:21:38;;;;;;;20.15;14.82;;;;;;;25.09;48.77;101005.19;8733754;33;20274;-75
2021/06/09 08:26:42;;;;;;;26.35;18.20;;;;;;;26.20;46.06;101007.53;8737481;33;20224;-75
2021/06/09 08:31:46;;;;;;;27.00;18.35;;;;;;;26.70;44.70;100999.63;8737572;33;20223;-75
2021/06/09 08:36:51;;;;;;;23.45;18.17;;;;;;;26.59;44.40;100997.53;8739907;33;20227;-75
2021/06/09 08:41:56;;;;;;;24.90;17.77;;;;;;;26.39;44.57;101000.34;8737246;33;20285;-75
2021/06/09 08:47:03;;;;;;;24.30;17.55;;;;;;;26.45;45.20;100998.66;8736612;33;20232;-75
2021/06/09 08:52:10;;;;;;;25.85;17.83;;;;;;;26.19;45.16;100996.72;8736490;33;20266;-75
2021/06/09 08:57:14;;;;;;;23.73;17.50;;;;;;;26.35;45.72;100999.06;8736404;33;20234;-75
2021/06/09 09:02:18;;;;;;;24.58;16.60;;;;;;;26.65;44.35;101001.34;8736576;33;20263;-75
2021/06/09 09:07:24;;;;;;;19.83;14.65;;;;;;;25.56;45.55;101002.59;8736432;33;21511;-76
2021/06/09 09:12:27;;;;;;;20.15;15.23;;;;;;;24.20;48.71;101002.31;8735528;33;20250;-75
2021/06/09 09:17:31;;;;;;;24.23;16.63;;;;;;;23.36;51.32;101002.97;8736914;33;20219;-74
2021/06/09 09:22:37;;;;;;;25.08;17.60;;;;;;;23.97;49.39;100995.19;8738007;33;20219;-77
2021/06/09 09:27:40;;;;;;;24.95;18.17;;;;;;;23.81;50.38;101006.44;8738272;33;20219;-76
2021/06/09 09:33:03;;;;;;;22.98;17.33;;;;;;;24.52;49.13;101009.13;8737275;33;20756;-76
2021/06/09 09:38:14;;;;;;;21.25;15.45;;;;;;;24.14;49.33;101014.94;8736295;33;20750;-75
2021/06/09 09:43:17;;;;;;;25.13;16.35;;;;;;;24.56;48.72;101009.56;8734566;33;20254;-76
2021/06/09 09:48:21;;;;;;;20.50;14.93;;;;;;;24.63;48.07;101016.81;8711613;33;20264;-75
2021/06/09 09:53:30;;;;;;;16.83;12.95;;;;;;;26.26;44.97;101023.22;8736995;33;20220;-75
2021/06/09 09:58:35;;;;;;;16.05;12.50;;;;;;;28.12;40.87;101015.25;8738010;33;20219;-75
2021/06/09 10:03:42;;;;;;;17.27;12.27;;;;;;;28.55;38.95;101014.41;8740542;33;22004;-75
2021/06/09 10:08:44;;;;;;;18.35;13.40;;;;;;;27.55;40.82;101012.47;8734347;33;20239;-76
2021/06/09 10:13:48;;;;;;;21.13;15.20;;;;;;;26.56;43.16;101008.16;8735853;33;20813;-76
2021/06/09 10:19:04;;;;;;;21.63;15.20;;;;;;;26.19;43.06;101011.38;8740533;33;20220;-75
2021/06/09 10:24:09;;;;;;;19.50;14.23;;;;;;;25.87;44.10;101013.06;8751659;33;20223;-76
2021/06/09 10:29:14;;;;;;;19.85;15.65;;;;;;;25.16;44.86;101016.25;8741277;33;20228;-76
2021/06/09 10:34:18;;;;;;;18.60;14.60;;;;;;;25.35;43.11;101015.47;8740829;33;20228;-75
2021/06/09 10:39:24;;;;;;;24.73;17.30;;;;;;;26.87;40.30;101005.53;8722390;33;20222;-75
2021/06/09 10:44:31;;;;;;;18.63;14.32;;;;;;;27.52;39.63;100999.09;8744179;33;20239;-76
2021/06/09 10:49:38;;;;;;;18.45;14.60;;;;;;;27.56;39.29;100995.69;8739823;33;20631;-76
2021/06/09 10:54:41;;;;;;;19.02;13.73;;;;;;;28.08;40.21;100997.44;8739846;33;20228;-76
2021/06/09 10:59:44;;;;;;;21.95;14.77;;;;;;;28.84;38.96;100991.56;8739830;33;20634;-76
2021/06/09 11:04:51;;;;;;;17.55;14.55;;;;;;;28.57;39.00;100984.66;8740046;33;20227;-76
2021/06/09 11:09:55;;;;;;;19.45;15.05;;;;;;;26.66;40.66;100995.63;8740053;33;20965;-76
2021/06/09 11:15:00;;;;;;;17.63;13.73;;;;;;;26.58;41.23;100993.09;8739566;33;20314;-76
2021/06/09 11:20:18;;;;;;;20.35;15.52;;;;;;;28.74;37.18;100984.88;8739992;33;20720;-76
2021/06/09 11:25:37;;;;;;;21.45;15.05;;;;;;;29.54;36.18;100970.84;8738749;33;20235;-75
2021/06/09 11:30:59;;;;;;;18.52;15.00;;;;;;;29.63;37.37;100974.16;8738830;33;20224;-75
2021/06/09 11:36:09;;;;;;;19.25;15.57;;;;;;;28.96;36.87;100966.72;8739518;33;20255;-75
2021/06/09 11:41:14;;;;;;;17.00;14.88;;;;;;;30.40;34.32;100961.09;8739190;33;20232;-75
2021/06/09 11:46:22;;;;;;;15.05;12.60;;;;;;;30.59;34.63;100955.41;8738596;33;20216;-75
2021/06/09 11:51:33;;;;;;;17.45;13.40;;;;;;;30.57;35.06;100957.56;8741386;33;20600;-75
2021/06/09 11:56:43;;;;;;;17.73;14.40;;;;;;;31.02;33.29;100948.53;8738502;33;20242;-75
2021/06/09 12:01:47;;;;;;;13.82;11.57;;;;;;;29.35;34.61;100947.94;8738876;33;20230;-75
2021/06/09 12:06:58;;;;;;;12.48;11.10;;;;;;;30.10;34.56;100947.34;8737792;33;20361;-75
2021/06/09 12:12:05;;;;;;;15.77;11.98;;;;;;;31.63;32.16;100940.53;8738164;33;20226;-75
2021/06/09 12:17:23;;;;;;;17.15;12.20;;;;;;;32.33;32.00;100934.44;8737739;33;20361;-75
2021/06/09 12:22:29;;;;;;;14.20;11.00;;;;;;;32.75;31.14;100933.06;8738145;33;20219;-75
2021/06/09 12:27:34;;;;;;;13.25;11.23;;;;;;;32.78;32.70;100927.84;8737338;33;20254;-75
2021/06/09 12:32:37;;;;;;;13.85;11.00;;;;;;;31.81;30.99;100920.03;8737351;33;20228;-75
2021/06/09 12:37:47;;;;;;;14.70;12.40;;;;;;;31.62;31.22;100913.84;8736511;33;20739;-75
2021/06/09 12:42:53;;;;;;;13.30;11.80;;;;;;;31.44;31.06;100907.47;8737208;33;20234;-75
2021/06/09 12:48:04;;;;;;;12.18;10.25;;;;;;;29.98;33.23;100910.50;8736696;33;20354;-73
2021/06/09 12:53:12;;;;;;;10.63;9.52;;;;;;;29.37;35.41;100910.66;8737196;33;20238;-73
2021/06/09 12:58:20;;;;;;;12.98;10.60;;;;;;;31.92;32.80;100897.69;8736257;33;20728;-74
2021/06/09 13:03:26;;;;;;;12.57;10.52;;;;;;;31.54;31.73;100888.22;8735697;33;21565;-73
2021/06/09 13:08:33;;;;;;;11.88;10.40;;;;;;;31.97;32.85;100885.84;8733053;33;20647;-74
2021/06/09 13:13:38;;;;;;;14.90;10.93;;;;;;;33.08;30.57;100893.13;8733345;33;21549;-73
2021/06/09 13:18:47;;;;;;;11.65;9.98;;;;;;;34.02;29.09;100885.28;8735140;33;20223;-74
2021/06/09 13:23:56;;;;;;;10.25;9.00;;;;;;;32.49;31.62;100879.06;8736772;33;20215;-74
2021/06/09 13:28:59;;;;;;;11.45;10.32;;;;;;;33.85;29.77;100872.38;8712307;33;20227;-74
2021/06/09 13:34:02;;;;;;;12.52;10.13;;;;;;;34.28;29.13;100864.00;8735879;33;20254;-74
2021/06/09 13:39:09;;;;;;;12.90;10.23;;;;;;;34.66;29.36;100864.72;8736378;33;20258;-74
2021/06/09 13:44:12;;;;;;;12.38;10.50;;;;;;;33.96;27.76;100857.41;8736195;33;20278;-73
2021/06/09 13:49:29;;;;;;;10.40;9.35;;;;;;;33.87;29.46;100847.88;8736065;33;20231;-74
2021/06/09 13:54:36;;;;;;;11.95;9.43;;;;;;;34.40;28.34;100839.50;8736203;33;20303;-74
2021/06/09 13:59:46;;;;;;;11.63;9.52;;;;;;;33.33;30.19;100834.09;8736634;33;20616;-75
2021/06/09 14:04:49;;;;;;;12.50;9.45;;;;;;;32.62;30.38;100839.75;8742569;33;20647;-73
2021/06/09 14:09:58;;;;;;;11.10;9.85;;;;;;;33.96;29.82;100834.28;8738728;33;20253;-74
2021/06/09 14:15:11;;;;;;;11.00;9.60;;;;;;;34.16;28.72;100828.81;8736338;33;20238;-74
2021/06/09 14:20:17;;;;;;;11.40;9.38;;;;;;;34.07;29.42;100824.84;8737026;33;20230;-74
2021/06/09 14:25:23;;;;;;;10.63;8.95;;;;;;;34.52;29.33;100820.59;8736203;33;20234;-74
2021/06/09 14:30:33;;;;;;;13.00;9.90;;;;;;;32.42;30.34;100823.69;8736942;33;20239;-74
2021/06/09 14:35:47;;;;;;;11.77;9.65;;;;;;;33.76;29.20;100807.97;8735998;33;20219;-74
2021/06/09 14:40:53;;;;;;;13.15;10.18;;;;;;;33.21;30.17;100812.00;8736635;33;20254;-74
2021/06/09 14:45:59;;;;;;;11.52;10.10;;;;;;;32.50;31.72;100811.22;8735626;33;20226;-74
2021/06/09 14:51:15;;;;;;;11.13;9.98;;;;;;;32.46;31.68;100797.03;8735767;33;20223;-73
2021/06/09 14:56:20;;;;;;;12.80;10.25;;;;;;;33.85;29.61;100804.69;8735236;33;20257;-73
2021/06/09 15:01:25;;;;;;;10.90;9.70;;;;;;;32.56;31.26;100799.09;8738024;33;20219;-73
2021/06/09 15:06:28;;;;;;;10.60;9.50;;;;;;;33.35;30.37;100792.88;8741313;33;20230;-74
2021/06/09 15:11:34;;;;;;;11.20;10.15;;;;;;;31.99;32.05;100800.31;8725574;33;20505;-74
2021/06/09 15:16:37;;;;;;;9.25;8.35;;;;;;;32.36;31.59;100789.41;8753638;33;20239;-74
2021/06/09 15:21:40;;;;;;;9.63;8.65;;;;;;;33.38;30.59;100802.66;8740906;33;20250;-73
2021/06/09 15:26:44;;;;;;;10.15;9.05;;;;;;;32.73;30.96;100793.44;8739302;33;20735;-74
2021/06/09 15:31:47;;;;;;;10.15;9.13;;;;;;;32.05;32.34;100790.09;8739670;33;20931;-74
2021/06/09 15:36:50;;;;;;;9.88;8.88;;;;;;;32.15;32.03;100791.06;8738677;33;20211;-74
2021/06/09 15:41:55;;;;;;;10.60;9.50;;;;;;;31.04;33.82;100782.72;8738427;33;20732;-73
2021/06/09 15:46:58;;;;;;;10.80;9.77;;;;;;;31.68;33.71;100794.34;8738251;33;20219;-73
2021/06/09 15:52:01;;;;;;;9.77;8.82;;;;;;;32.40;32.76;100784.19;8738203;33;20285;-73
2021/06/09 15:57:06;;;;;;;9.15;8.25;;;;;;;32.16;32.54;100787.22;8738014;33;20228;-73
2021/06/09 16:02:09;;;;;;;9.55;8.48;;;;;;;32.29;33.42;100788.78;8738202;33;20799;-73
2021/06/09 16:07:12;;;;;;;9.35;8.45;;;;;;;33.65;29.79;100786.72;8738436;33;20364;-72
2021/06/09 16:12:16;;;;;;;10.20;7.93;;;;;;;34.23;28.68;100783.13;8737798;33;20259;-75
2021/06/09 16:17:18;;;;;;;8.75;7.95;;;;;;;33.33;29.87;100776.47;8737535;33;20220;-75
2021/06/09 16:22:21;;;;;;;8.00;7.18;;;;;;;33.58;30.59;100771.34;8734485;33;20643;-75
2021/06/09 16:27:26;;;;;;;8.10;7.43;;;;;;;34.59;29.10;100768.22;8731174;33;20755;-75
2021/06/09 16:32:29;;;;;;;9.07;8.18;;;;;;;36.74;26.57;100770.50;8731758;33;20253;-75
2021/06/09 16:37:32;;;;;;;8.38;7.57;;;;;;;36.55;26.42;100773.16;8731185;33;21022;-75
2021/06/09 16:42:36;;;;;;;8.05;7.10;;;;;;;38.72;24.43;100763.00;8731680;33;20844;-74
2021/06/09 16:47:38;;;;;;;8.15;7.30;;;;;;;39.45;22.57;100771.91;8731673;33;20225;-74
2021/06/09 16:52:42;;;;;;;7.55;6.35;;;;;;;39.60;22.98;100774.41;8731432;33;20234;-74
2021/06/09 17:03:07;;;;;;;8.23;7.13;;;;;;;40.29;22.06;100777.25;8736666;33;20223;-75
2021/06/09 17:08:10;;;;;;;7.00;6.38;;;;;;;38.88;23.99;100779.59;8736308;33;20804;-76
2021/06/09 17:13:15;;;;;;;7.53;6.82;;;;;;;36.72;25.19;100783.09;8729334;33;20262;-76
2021/06/09 17:18:18;;;;;;;7.18;6.50;;;;;;;30.88;32.32;100785.25;8695032;33;20906;-75
2021/06/09 17:23:20;;;;;;;7.85;7.15;;;;;;;27.35;38.63;100784.47;8725598;33;20239;-75
2021/06/09 17:28:27;;;;;;;7.88;7.10;;;;;;;26.92;40.56;100784.41;8735591;33;20232;-75
2021/06/09 17:33:30;;;;;;;9.00;7.60;;;;;;;27.03;41.04;100789.19;8735122;33;20231;-75
2021/06/09 17:38:33;;;;;;;7.30;6.47;;;;;;;31.26;34.51;100782.81;8735970;33;20224;-75
2021/06/09 17:43:38;;;;;;;7.60;6.90;;;;;;;33.88;30.29;100776.28;8735262;33;21539;-75
2021/06/09 17:48:41;;;;;;;7.72;6.85;;;;;;;32.35;31.95;100782.16;8710374;33;20696;-76
2021/06/09 17:53:44;;;;;;;6.90;6.30;;;;;;;30.90;34.05;100783.03;8735529;33;20226;-75
2021/06/09 17:58:48;;;;;;;8.25;7.40;;;;;;;29.73;36.03;100775.94;8734911;33;20226;-75
2021/06/09 18:03:54;;;;;;;9.50;7.28;;;;;;;28.39;38.00;100783.81;8735949;33;20242;-76
2021/06/09 18:09:00;;;;;;;8.05;7.10;;;;;;;27.38;40.04;100783.16;8734935;33;20956;-77
2021/06/09 18:14:04;;;;;;;8.35;7.55;;;;;;;26.85;41.21;100783.59;8734794;33;20311;-76
2021/06/09 18:19:07;;;;;;;7.90;7.18;;;;;;;26.58;42.09;100774.63;8735228;33;20231;-76
2021/06/09 18:24:09;;;;;;;8.82;7.97;;;;;;;26.43;41.87;100772.16;8735572;33;20235;-77
2021/06/09 18:29:13;;;;;;;8.30;7.50;;;;;;;26.19;42.97;100765.47;8710788;33;20243;-76
2021/06/09 18:34:18;;;;;;;8.13;7.32;;;;;;;25.93;43.21;100766.44;8734932;33;21352;-75
2021/06/09 18:39:21;;;;;;;8.85;7.82;;;;;;;25.66;nan;100774.75;8740393;33;20219;-75
2021/06/09 18:44:26;;;;;;;9.35;8.30;;;;;;;25.32;45.62;100765.69;8740966;33;20224;-75
2021/06/09 18:49:29;;;;;;;8.93;8.02;;;;;;;24.92;45.96;100784.88;8739309;33;20224;-75
2021/06/09 18:54:32;;;;;;;8.57;7.60;;;;;;;24.85;46.50;100773.03;8739081;33;20235;-75
2021/06/09 18:59:37;;;;;;;10.43;7.25;;;;;;;24.62;46.92;100778.91;8739924;33;20226;-76
2021/06/09 19:04:40;;;;;;;8.50;7.63;;;;;;;24.54;47.64;100782.69;8713459;33;20900;-76
2021/06/09 19:09:44;;;;;;;8.70;7.80;;;;;;;24.36;47.36;100787.88;8739020;33;20311;-76
2021/06/09 19:14:48;;;;;;;9.02;8.13;;;;;;;24.09;47.76;100793.25;8736781;33;20224;-75
2021/06/09 19:19:52;;;;;;;8.25;7.45;;;;;;;23.65;48.79;100799.94;8713903;33;21008;-75
2021/06/09 19:24:54;;;;;;;10.45;8.45;;;;;;;23.20;49.72;100806.75;8738671;33;20254;-75
2021/06/09 19:29:59;;;;;;;9.85;7.50;;;;;;;22.83;50.40;100813.34;8738749;33;20231;-75
2021/06/09 19:35:02;;;;;;;9.55;8.10;;;;;;;22.86;50.71;100823.91;8744084;33;20232;-77
2021/06/09 19:40:07;;;;;;;9.20;8.30;;;;;;;22.74;50.68;100824.41;8740608;33;20223;-76
2021/06/09 19:45:12;;;;;;;9.25;7.78;;;;;;;22.72;50.36;100826.50;8738885;33;20263;-75
2021/06/09 19:50:17;;;;;;;8.88;7.97;;;;;;;22.57;50.51;100822.94;8738259;33;20227;-76
2021/06/09 19:55:20;;;;;;;8.85;8.02;;;;;;;22.54;50.44;100828.78;8738195;33;20230;-76
2021/06/09 20:00:24;;;;;;;11.85;8.63;;;;;;;22.46;50.80;100837.13;8738595;33;20220;-76
2021/06/09 20:05:27;;;;;;;9.32;7.88;;;;;;;22.27;51.03;100836.66;8737782;33;20224;-76
2021/06/09 20:10:30;;;;;;;9.25;8.00;;;;;;;22.19;51.63;100847.72;8737994;33;20237;-76
2021/06/09 20:15:34;;;;;;;8.85;7.95;;;;;;;22.20;51.40;100848.56;8738218;33;20274;-75
2021/06/09 20:20:37;;;;;;;10.88;8.10;;;;;;;22.13;51.67;100844.88;8738101;33;20227;-74
2021/06/09 20:31:01;;;;;;;10.77;9.35;;;;;;;22.20;51.79;100840.34;8737642;33;20243;-75
2021/06/09 20:36:05;;;;;;;11.70;9.18;;;;;;;22.07;52.21;100830.91;8737646;33;20286;-75
2021/06/09 20:41:08;;;;;;;10.95;9.77;;;;;;;21.95;52.65;100829.69;8725695;33;20236;-75
2021/06/09 20:46:13;;;;;;;10.95;8.93;;;;;;;21.94;52.50;100827.13;8679148;33;20225;-76
2021/06/09 20:51:16;;;;;;;10.38;8.70;;;;;;;21.81;52.92;100834.13;8679283;33;20224;-75
2021/06/09 20:56:19;;;;;;;11.20;8.98;;;;;;;21.70;53.23;100837.28;8655083;34;20672;-75
2021/06/09 21:01:24;;;;;;;9.70;8.55;;;;;;;21.57;53.79;100845.28;8678849;34;20298;-75
2021/06/09 21:06:27;;;;;;;10.38;8.90;;;;;;;21.27;54.09;100844.34;8678789;34;20770;-75
2021/06/09 21:11:30;;;;;;;12.43;9.20;;;;;;;20.89;54.71;100853.28;8679054;34;20271;-74
2021/06/09 21:16:35;;;;;;;12.23;8.68;;;;;;;20.58;56.17;100850.59;8654934;34;20332;-74
2021/06/09 21:21:38;;;;;;;11.75;9.10;;;;;;;20.64;56.08;100849.03;8678432;34;20224;-74
2021/06/09 21:26:41;;;;;;;11.13;8.52;;;;;;;20.68;55.92;100855.81;8678404;34;20236;-75
2021/06/09 21:31:45;;;;;;;11.35;9.27;;;;;;;20.69;56.11;100854.81;8678620;34;20251;-75
2021/06/09 21:36:48;;;;;;;11.02;9.32;;;;;;;20.79;56.08;100860.88;8654360;34;20737;-74
2021/06/09 21:41:51;;;;;;;9.82;8.73;;;;;;;20.64;56.31;100858.06;8654242;34;20243;-75
2021/06/09 21:46:55;;;;;;;9.88;8.82;;;;;;;20.44;56.86;100854.94;8677985;34;20244;-74
2021/06/09 21:51:58;;;;;;;11.05;9.60;;;;;;;20.45;57.09;100858.50;8676439;34;20240;-76
2021/06/09 21:57:01;;;;;;;15.38;11.73;;;;;;;20.26;57.67;100857.00;8678285;34;20232;-77
2021/06/09 22:02:06;;;;;;;11.77;10.27;;;;;;;20.19;57.94;100862.34;8678812;34;20267;-76
2021/06/09 22:07:09;;;;;;;12.27;10.82;;;;;;;20.23;57.91;100855.47;8697812;33;20235;-77
2021/06/09 22:12:12;;;;;;;14.20;10.60;;;;;;;20.22;58.14;100863.88;8741337;33;20216;-77
2021/06/09 22:17:16;;;;;;;15.90;11.30;;;;;;;20.13;58.75;100868.50;8725420;33;20283;-76
2021/06/09 22:22:18;;;;;;;14.48;11.40;;;;;;;19.83;58.94;100878.28;8713813;33;20772;-77
2021/06/09 22:27:21;;;;;;;15.35;11.50;;;;;;;19.72;59.92;100871.31;8704414;33;20268;-77
2021/06/09 22:32:25;;;;;;;14.30;11.45;;;;;;;19.82;59.74;100868.38;8740023;33;20267;-77
2021/06/09 22:37:28;;;;;;;14.40;11.10;;;;;;;19.70;60.12;100869.78;8738978;33;20292;-77
2021/06/09 22:42:30;;;;;;;14.65;11.07;;;;;;;19.72;60.07;100868.59;8739372;33;20235;-77
2021/06/09 22:47:34;;;;;;;15.85;11.27;;;;;;;19.67;60.21;100869.09;8739522;33;20224;-77
2021/06/09 22:52:37;;;;;;;15.38;12.18;;;;;;;19.67;60.41;100877.28;8739727;33;20219;-77
2021/06/09 22:57:41;;;;;;;17.38;12.30;;;;;;;19.56;60.57;100872.19;8739051;33;20275;-77
2021/06/09 23:02:45;;;;;;;13.95;12.10;;;;;;;18.62;64.05;100877.94;8739549;33;20228;-76
2021/06/09 23:07:47;;;;;;;17.52;12.88;;;;;;;18.09;65.34;100885.38;8738432;33;20235;-77
2021/06/09 23:12:51;;;;;;;18.33;14.32;;;;;;;18.21;65.16;100884.09;8714529;33;20235;-77
2021/06/09 23:17:56;;;;;;;16.67;12.77;;;;;;;18.52;64.60;100880.81;8713802;33;20658;-77
2021/06/09 23:22:59;;;;;;;17.50;14.32;;;;;;;18.79;64.13;100886.03;8737952;33;20267;-77
2021/06/09 23:28:02;;;;;;;18.90;13.98;;;;;;;18.91;63.62;100883.00;8738131;33;20844;-77